createdAt,value
2023-12-04T00:01:20.201Z,8.17
2023-12-04T00:03:48.387Z,9.17
2023-12-04T00:06:16.728Z,7.30
2023-12-04T00:08:44.906Z,6.40
2023-12-04T00:11:13.220Z,7.50
2023-12-04T00:13:41.238Z,7.50
2023-12-04T00:16:11.541Z,7.20
2023-12-04T00:18:39.722Z,6.90
2023-12-04T00:21:08.470Z,7.37
2023-12-04T00:23:36.570Z,7.53
2023-12-04T00:26:04.824Z,7.87
2023-12-04T00:28:33.279Z,7.27
2023-12-04T00:31:01.342Z,8.07
2023-12-04T00:33:30.903Z,7.33
2023-12-04T00:35:59.767Z,7.43
2023-12-04T00:38:27.777Z,7.27
2023-12-04T00:40:55.826Z,8.67
2023-12-04T00:43:23.843Z,8.00
2023-12-04T00:45:51.916Z,7.03
2023-12-04T00:48:20.101Z,7.27
2023-12-04T00:50:49.593Z,7.77
2023-12-04T00:53:17.654Z,8.63
2023-12-04T00:55:45.717Z,7.63
2023-12-04T00:58:14.039Z,7.37
2023-12-04T01:00:42.344Z,7.53
2023-12-04T01:03:10.450Z,6.90
2023-12-04T01:05:38.582Z,7.30
2023-12-04T01:08:08.019Z,6.93
2023-12-04T01:10:36.158Z,6.20
2023-12-04T01:13:04.246Z,6.27
2023-12-04T01:15:32.386Z,9.03
2023-12-04T01:18:01.778Z,8.10
2023-12-04T01:20:30.676Z,7.20
2023-12-04T01:22:59.322Z,7.80
2023-12-04T01:25:28.748Z,7.10
2023-12-04T01:27:56.794Z,7.80
2023-12-04T01:30:24.839Z,7.33
2023-12-04T01:32:53.756Z,7.60
2023-12-04T01:35:21.821Z,7.77
2023-12-04T01:37:49.828Z,7.50
2023-12-04T01:40:18.060Z,7.97
2023-12-04T01:42:47.749Z,7.33
2023-12-04T01:45:15.868Z,8.37
2023-12-04T01:47:44.914Z,8.30
2023-12-04T01:50:14.895Z,7.37
2023-12-04T01:52:42.954Z,8.23
2023-12-04T01:55:11.934Z,7.20
2023-12-04T01:57:40.155Z,7.20
2023-12-04T02:00:12.972Z,7.10
2023-12-04T02:02:41.407Z,6.33
2023-12-04T02:05:10.592Z,7.67
2023-12-04T02:07:39.050Z,6.63
2023-12-04T02:10:08.022Z,8.00
2023-12-04T02:12:36.384Z,6.83
2023-12-04T02:15:04.614Z,8.07
2023-12-04T02:17:35.194Z,7.30
2023-12-04T02:20:06.486Z,8.23
2023-12-04T02:22:34.508Z,6.50
2023-12-04T02:25:04.124Z,6.97
2023-12-04T02:27:38.975Z,6.63
2023-12-04T02:30:08.953Z,7.13
2023-12-04T02:32:40.003Z,7.10
2023-12-04T02:35:09.109Z,7.07
2023-12-04T02:37:37.394Z,7.37
2023-12-04T02:40:08.567Z,5.40
2023-12-04T02:42:36.654Z,6.20
2023-12-04T02:45:05.357Z,6.30
2023-12-04T02:47:33.489Z,6.77
2023-12-04T02:50:01.618Z,6.27
2023-12-04T02:52:29.629Z,6.73
2023-12-04T02:54:57.642Z,6.30
2023-12-04T02:57:27.131Z,7.40
2023-12-04T02:59:55.564Z,6.00
2023-12-04T03:02:23.613Z,6.80
2023-12-04T03:04:51.644Z,7.00
2023-12-04T03:07:21.256Z,6.70
2023-12-04T03:09:50.036Z,6.50
2023-12-04T03:12:18.288Z,5.77
2023-12-04T03:14:47.739Z,6.30
2023-12-04T03:17:15.799Z,6.33
2023-12-04T03:19:43.930Z,6.87
2023-12-04T03:22:12.016Z,6.17
2023-12-04T03:24:40.075Z,5.90
2023-12-04T03:27:08.107Z,5.03
2023-12-04T03:29:36.111Z,5.93
2023-12-04T03:32:06.174Z,6.40
2023-12-04T03:34:34.239Z,5.77
2023-12-04T03:37:02.372Z,5.60
2023-12-04T03:39:30.414Z,5.53
2023-12-04T03:41:58.561Z,6.57
2023-12-04T03:44:27.800Z,5.63
2023-12-04T03:46:56.081Z,6.00
2023-12-04T03:49:25.508Z,6.07
2023-12-04T03:51:53.632Z,5.73
2023-12-04T03:54:21.834Z,5.97
2023-12-04T03:56:49.865Z,5.87
2023-12-04T03:59:17.921Z,5.07
2023-12-04T04:01:45.998Z,5.97
2023-12-04T04:04:14.247Z,5.27
2023-12-04T04:06:43.731Z,6.30
2023-12-04T04:09:11.812Z,5.83
2023-12-04T04:11:39.826Z,4.30
2023-12-04T04:14:07.868Z,6.60
2023-12-04T04:16:35.937Z,4.53
2023-12-04T04:19:04.456Z,5.23
2023-12-04T04:21:32.562Z,5.47
2023-12-04T04:24:02.092Z,4.93
2023-12-04T04:26:30.430Z,5.93
2023-12-04T04:28:58.444Z,4.60
2023-12-04T04:31:27.021Z,5.77
2023-12-04T04:33:55.135Z,5.43
2023-12-04T04:36:23.261Z,4.60
2023-12-04T04:38:51.268Z,6.33
2023-12-04T04:41:20.739Z,5.33
2023-12-04T04:43:48.813Z,6.43
2023-12-04T04:46:16.888Z,5.30
2023-12-04T04:48:45.049Z,5.53
2023-12-04T04:51:13.103Z,5.40
2023-12-04T04:53:41.206Z,4.40
2023-12-04T04:56:11.627Z,5.13
2023-12-04T04:58:41.083Z,5.80
2023-12-04T05:01:10.163Z,5.80
2023-12-04T05:03:38.315Z,5.23
2023-12-04T05:06:07.071Z,5.23
2023-12-04T05:08:35.107Z,5.20
2023-12-04T05:11:03.150Z,5.33
2023-12-04T05:13:31.168Z,4.80
2023-12-04T05:16:00.661Z,4.67
2023-12-04T05:18:28.776Z,5.33
2023-12-04T05:20:56.839Z,4.37
2023-12-04T05:23:24.887Z,4.60
2023-12-04T05:25:53.471Z,4.63
2023-12-04T05:28:21.538Z,5.37
2023-12-04T05:30:49.699Z,4.47
2023-12-04T05:33:19.310Z,4.80
2023-12-04T05:35:48.450Z,5.17
2023-12-04T05:38:16.703Z,4.70
2023-12-04T05:40:44.873Z,4.73
2023-12-04T05:43:13.032Z,5.97
2023-12-04T05:45:41.417Z,5.17
2023-12-04T05:48:09.714Z,5.33
2023-12-04T05:50:39.134Z,5.47
2023-12-04T05:53:08.573Z,5.23
2023-12-04T05:55:36.590Z,6.03
2023-12-04T05:58:04.643Z,5.43
2023-12-04T06:00:32.781Z,4.77
2023-12-04T06:03:00.924Z,4.17
2023-12-04T06:05:29.539Z,5.50
2023-12-04T06:07:59.316Z,5.13
2023-12-04T06:10:27.364Z,5.10
2023-12-04T06:12:55.421Z,4.70
2023-12-04T06:15:23.453Z,4.73
2023-12-04T06:17:51.501Z,4.37
2023-12-04T06:20:19.626Z,5.03
2023-12-04T06:22:48.138Z,5.13
2023-12-04T06:25:19.391Z,4.87
2023-12-04T06:27:48.037Z,4.93
2023-12-04T06:30:17.051Z,4.93
2023-12-04T06:32:45.820Z,4.87
2023-12-04T06:35:19.293Z,4.47
2023-12-04T06:37:50.329Z,4.60
2023-12-04T06:40:21.092Z,4.67
2023-12-04T06:42:49.820Z,5.40
2023-12-04T06:45:18.896Z,4.30
2023-12-04T06:47:48.408Z,4.53
2023-12-04T06:50:16.611Z,4.67
2023-12-04T06:52:44.674Z,4.90
2023-12-04T06:55:14.381Z,4.10
2023-12-04T06:57:43.920Z,5.10
2023-12-04T07:00:21.351Z,4.33
2023-12-04T07:02:51.104Z,3.60
2023-12-04T07:05:19.879Z,4.07
2023-12-04T07:07:47.992Z,4.43
2023-12-04T07:10:17.145Z,4.00
2023-12-04T07:12:47.131Z,4.80
2023-12-04T07:15:15.465Z,4.70
2023-12-04T07:17:43.592Z,4.30
2023-12-04T07:20:13.337Z,4.10
2023-12-04T07:22:41.493Z,4.60
2023-12-04T07:25:10.521Z,3.83
2023-12-04T07:27:38.821Z,4.60
2023-12-04T07:30:09.711Z,4.23
2023-12-04T07:32:37.752Z,4.30
2023-12-04T07:35:07.551Z,5.83
2023-12-04T07:37:35.731Z,5.00
2023-12-04T07:40:04.848Z,3.77
2023-12-04T07:42:32.967Z,4.47
2023-12-04T07:45:01.474Z,4.97
2023-12-04T07:47:30.938Z,4.10
2023-12-04T07:50:01.276Z,4.80
2023-12-04T07:52:29.499Z,4.37
2023-12-04T07:54:58.137Z,5.37
2023-12-04T07:57:26.169Z,4.43
2023-12-04T07:59:54.354Z,4.07
2023-12-04T08:02:22.403Z,4.00
2023-12-04T08:04:51.834Z,4.53
2023-12-04T08:07:20.037Z,5.30
2023-12-04T08:09:48.187Z,4.90
2023-12-04T08:12:16.204Z,4.53
2023-12-04T08:14:44.298Z,4.53
2023-12-04T08:17:12.337Z,4.33
2023-12-04T08:19:41.007Z,4.70
2023-12-04T08:22:10.573Z,4.67
2023-12-04T08:24:38.612Z,4.37
2023-12-04T08:27:07.105Z,4.67
2023-12-04T08:29:35.795Z,4.50
2023-12-04T08:32:03.840Z,3.80
2023-12-04T08:34:32.522Z,4.30
2023-12-04T08:37:01.169Z,3.77
2023-12-04T08:39:30.641Z,4.50
2023-12-04T08:42:03.308Z,4.47
2023-12-04T08:44:32.501Z,4.53
2023-12-04T08:47:02.017Z,4.20
2023-12-04T08:49:35.948Z,4.00
2023-12-04T08:52:10.845Z,4.30
2023-12-04T08:54:43.245Z,4.90
2023-12-04T08:57:11.782Z,3.83
2023-12-04T08:59:39.845Z,4.07
2023-12-04T09:02:10.538Z,5.03
2023-12-04T09:04:39.859Z,4.50
2023-12-04T09:09:39.142Z,4.47
2023-12-04T09:12:10.183Z,4.37
2023-12-04T09:14:38.413Z,4.77
2023-12-04T09:17:07.017Z,3.60
2023-12-04T09:19:35.240Z,4.43
2023-12-04T09:22:12.370Z,4.13
2023-12-04T09:24:46.155Z,4.27
2023-12-04T09:27:15.733Z,4.03
2023-12-04T09:29:44.045Z,4.63
2023-12-04T09:32:12.333Z,4.57
2023-12-04T09:34:40.426Z,4.20
2023-12-04T09:37:11.468Z,4.80
2023-12-04T09:39:41.625Z,5.07
2023-12-04T09:42:10.550Z,4.27
2023-12-04T09:44:41.645Z,5.10
2023-12-04T09:47:10.429Z,4.80
2023-12-04T09:49:38.821Z,4.93
2023-12-04T09:52:08.452Z,4.23
2023-12-04T09:54:38.026Z,5.20
2023-12-04T09:57:06.604Z,4.57
2023-12-04T09:59:36.815Z,4.40
2023-12-04T10:02:07.516Z,3.93
2023-12-04T10:04:36.214Z,4.33
2023-12-04T10:07:05.351Z,4.00
2023-12-04T10:09:33.492Z,4.23
2023-12-04T10:12:02.118Z,4.47
2023-12-04T10:14:31.342Z,4.83
2023-12-04T10:17:00.449Z,4.00
2023-12-04T10:19:31.555Z,4.00
2023-12-04T10:22:01.490Z,4.30
2023-12-04T10:24:31.440Z,4.33
2023-12-04T10:27:00.157Z,4.03
2023-12-04T10:29:31.442Z,4.90
2023-12-04T10:32:03.850Z,4.20
2023-12-04T10:34:35.342Z,4.67
2023-12-04T10:37:06.079Z,4.47
2023-12-04T10:39:36.303Z,5.00
2023-12-04T10:42:05.237Z,4.47
2023-12-04T10:44:34.236Z,5.53
2023-12-04T10:47:03.571Z,3.83
2023-12-04T10:49:33.178Z,3.87
2023-12-04T10:52:02.484Z,4.93
2023-12-04T10:54:30.755Z,5.47
2023-12-04T10:57:05.036Z,4.37
2023-12-04T10:59:35.374Z,4.70
2023-12-04T11:02:04.976Z,4.40
2023-12-04T11:04:36.138Z,4.57
2023-12-04T11:07:06.612Z,3.70
2023-12-04T11:09:37.843Z,4.57
2023-12-04T11:12:11.683Z,4.37
2023-12-04T11:14:45.376Z,4.40
2023-12-04T11:17:16.196Z,5.00
2023-12-04T11:19:52.556Z,4.27
2023-12-04T11:22:22.702Z,4.27
2023-12-04T11:24:50.908Z,4.27
2023-12-04T11:27:19.550Z,5.10
2023-12-04T11:29:47.834Z,4.37
2023-12-04T11:32:17.596Z,4.53
2023-12-04T11:34:53.176Z,4.47
2023-12-04T11:37:22.416Z,4.80
2023-12-04T11:39:51.630Z,4.30
2023-12-04T11:42:21.933Z,4.03
2023-12-04T11:44:51.202Z,4.53
2023-12-04T11:47:19.397Z,4.77
2023-12-04T11:49:47.535Z,4.40
2023-12-04T11:52:17.000Z,4.60
2023-12-04T11:55:05.044Z,5.03
2023-12-04T11:57:36.732Z,4.63
2023-12-04T12:00:18.388Z,4.10
2023-12-04T12:03:15.321Z,4.63
2023-12-04T12:05:42.311Z,4.67
2023-12-04T12:08:12.264Z,4.90
2023-12-04T12:10:40.319Z,4.67
2023-12-04T12:13:08.403Z,4.57
2023-12-04T12:15:36.689Z,4.83
2023-12-04T12:18:05.919Z,5.87
2023-12-04T12:20:34.599Z,4.57
2023-12-04T12:23:02.619Z,4.80
2023-12-04T12:25:32.045Z,4.67
2023-12-04T12:28:00.238Z,3.97
2023-12-04T12:30:28.428Z,4.87
2023-12-04T12:32:56.476Z,4.30
2023-12-04T12:35:25.787Z,5.00
2023-12-04T12:37:56.160Z,4.40
2023-12-04T12:40:24.476Z,4.60
2023-12-04T12:42:54.084Z,4.37
2023-12-04T12:45:22.638Z,5.10
2023-12-04T12:47:51.258Z,5.43
2023-12-04T12:50:19.477Z,3.70
2023-12-04T12:52:47.687Z,4.20
2023-12-04T12:55:25.326Z,4.97
2023-12-04T12:57:55.046Z,4.40
2023-12-04T13:00:23.841Z,4.80
2023-12-04T13:02:55.260Z,3.87
2023-12-04T13:05:23.459Z,4.37
2023-12-04T13:07:51.582Z,4.50
2023-12-04T13:10:19.686Z,5.13
2023-12-04T13:12:47.725Z,3.87
2023-12-04T13:15:17.160Z,4.37
2023-12-04T13:17:45.214Z,4.57
2023-12-04T13:20:15.064Z,4.00
2023-12-04T13:22:43.255Z,4.60
2023-12-04T13:25:11.437Z,4.80
2023-12-04T13:27:40.601Z,5.13
2023-12-04T13:30:09.526Z,3.90
2023-12-04T13:32:39.498Z,4.57
2023-12-04T13:35:09.081Z,4.50
2023-12-04T13:37:39.639Z,4.23
2023-12-04T13:40:09.529Z,4.37
2023-12-04T13:42:55.705Z,4.33
2023-12-04T13:45:24.563Z,4.30
2023-12-04T13:47:54.455Z,3.57
2023-12-04T13:50:23.148Z,4.40
2023-12-04T13:52:56.860Z,3.90
2023-12-04T13:55:38.066Z,3.40
2023-12-04T13:58:18.601Z,4.50
2023-12-04T14:00:46.662Z,3.63
2023-12-04T14:03:16.371Z,4.47
2023-12-04T14:05:44.720Z,3.90
2023-12-04T14:08:13.012Z,4.00
2023-12-04T14:10:41.214Z,4.67
2023-12-04T14:13:09.318Z,3.90
2023-12-04T14:15:37.370Z,3.93
2023-12-04T14:18:05.674Z,4.23
2023-12-04T14:20:35.188Z,3.97
2023-12-04T14:23:03.243Z,4.13
2023-12-04T14:25:32.348Z,4.07
2023-12-04T14:28:00.459Z,4.03
2023-12-04T14:30:29.023Z,4.37
2023-12-04T14:32:57.218Z,5.20
2023-12-04T14:35:25.310Z,4.43
2023-12-04T14:37:54.738Z,4.77
2023-12-04T14:40:22.843Z,4.67
2023-12-04T14:42:50.859Z,4.70
2023-12-04T14:45:18.893Z,4.30
2023-12-04T14:47:49.502Z,4.27
2023-12-04T14:50:18.198Z,6.17
2023-12-04T14:52:50.821Z,4.77
2023-12-04T14:55:37.977Z,4.30
2023-12-04T14:58:19.894Z,5.10
2023-12-04T15:01:21.730Z,4.50
2023-12-04T15:04:12.517Z,4.40
2023-12-04T15:07:03.714Z,5.50
2023-12-04T15:09:51.171Z,4.57
2023-12-04T15:12:29.126Z,5.07
2023-12-04T15:15:01.901Z,4.87
2023-12-04T15:17:35.031Z,5.47
2023-12-04T15:20:19.975Z,4.90
2023-12-04T15:22:49.152Z,5.37
2023-12-04T15:25:16.276Z,5.30
2023-12-04T15:27:46.609Z,4.43
2023-12-04T15:30:14.049Z,5.60
2023-12-04T15:32:42.251Z,5.40
2023-12-04T15:35:13.701Z,6.17
2023-12-04T15:37:41.509Z,5.23
2023-12-04T15:40:12.698Z,4.60
2023-12-04T15:42:39.956Z,5.67
2023-12-04T15:45:10.411Z,5.50
2023-12-04T15:47:38.661Z,5.60
2023-12-04T15:50:08.702Z,5.47
2023-12-04T15:52:41.041Z,5.93
2023-12-04T15:55:11.870Z,5.93
2023-12-04T15:57:39.091Z,7.17
2023-12-04T16:00:11.273Z,6.40
2023-12-04T16:02:39.395Z,6.00
2023-12-04T16:05:09.195Z,6.27
2023-12-04T16:07:37.338Z,6.30
2023-12-04T16:10:07.779Z,6.43
2023-12-04T16:12:36.364Z,5.70
2023-12-04T16:15:05.575Z,7.07
2023-12-04T16:17:35.297Z,5.97
2023-12-04T16:20:04.127Z,5.80
2023-12-04T16:22:32.299Z,6.20
2023-12-04T16:25:00.314Z,6.50
2023-12-04T16:27:28.329Z,8.23
2023-12-04T16:29:57.135Z,10.10
2023-12-04T16:32:25.185Z,7.07
2023-12-04T16:34:54.630Z,7.60
2023-12-04T16:37:23.083Z,6.93
2023-12-04T16:39:51.175Z,6.00
2023-12-04T16:42:19.341Z,6.50
2023-12-04T16:44:47.431Z,6.47
2023-12-04T16:47:15.531Z,5.83
2023-12-04T16:49:43.736Z,6.67
2023-12-04T16:52:16.154Z,6.13
2023-12-04T16:54:44.498Z,5.60
2023-12-04T16:57:12.622Z,5.20
2023-12-04T16:59:40.701Z,5.73
2023-12-04T17:02:08.866Z,6.40
2023-12-04T17:04:37.144Z,5.00
2023-12-04T17:07:05.627Z,5.33
2023-12-04T17:09:35.383Z,5.73
2023-12-04T17:12:03.507Z,5.60
2023-12-04T17:14:31.722Z,6.57
2023-12-04T17:16:59.980Z,5.03
2023-12-04T17:19:32.482Z,6.00
2023-12-04T17:22:00.753Z,5.70
2023-12-04T17:24:28.865Z,5.43
2023-12-04T17:26:58.301Z,5.77
2023-12-04T17:29:27.304Z,5.17
2023-12-04T17:31:55.375Z,4.90
2023-12-04T17:34:23.997Z,5.67
2023-12-04T17:36:52.077Z,5.03
2023-12-04T17:39:20.100Z,4.97
2023-12-04T17:41:48.157Z,3.90
2023-12-04T17:44:17.570Z,5.00
2023-12-04T17:46:45.605Z,5.50
2023-12-04T17:49:14.941Z,5.00
2023-12-04T17:51:43.170Z,4.80
2023-12-04T17:54:12.030Z,7.80
2023-12-04T17:56:40.240Z,5.10
2023-12-04T17:59:08.277Z,4.97
2023-12-04T18:01:37.801Z,4.77
2023-12-04T18:04:06.072Z,5.53
2023-12-04T18:06:34.330Z,4.60
2023-12-04T18:09:02.409Z,5.33
2023-12-04T18:11:30.432Z,6.50
2023-12-04T18:13:58.661Z,4.90
2023-12-04T18:16:29.146Z,4.70
2023-12-04T18:18:59.215Z,5.07
2023-12-04T18:21:27.834Z,4.70
2023-12-04T18:23:55.919Z,4.00
2023-12-04T18:26:24.466Z,5.00
2023-12-04T18:28:54.603Z,4.40
2023-12-04T18:31:24.339Z,4.63
2023-12-04T18:33:53.016Z,4.13
2023-12-04T18:36:22.801Z,5.07
2023-12-04T18:38:53.573Z,4.50
2023-12-04T18:41:22.961Z,4.97
2023-12-04T18:43:51.732Z,5.43
2023-12-04T18:46:21.201Z,5.00
2023-12-04T18:48:50.301Z,4.80
2023-12-04T18:51:19.143Z,4.90
2023-12-04T18:53:49.208Z,4.63
2023-12-04T18:56:17.284Z,5.13
2023-12-04T18:58:45.400Z,4.43
2023-12-04T19:01:13.456Z,4.70
2023-12-04T19:03:42.005Z,5.10
2023-12-04T19:06:11.017Z,4.57
2023-12-04T19:08:39.113Z,4.30
2023-12-04T19:11:09.132Z,4.37
2023-12-04T19:13:37.134Z,4.10
2023-12-04T19:16:05.745Z,3.40
2023-12-04T19:18:35.506Z,4.90
2023-12-04T19:21:04.725Z,4.30
2023-12-04T19:23:32.765Z,5.40
2023-12-04T19:26:00.805Z,4.67
2023-12-04T19:28:32.209Z,4.47
2023-12-04T19:31:00.452Z,3.77
2023-12-04T19:33:31.008Z,3.73
2023-12-04T19:35:59.335Z,4.33
2023-12-04T19:38:27.513Z,3.57
2023-12-04T19:40:55.517Z,5.13
2023-12-04T19:43:23.589Z,3.97
2023-12-04T19:45:53.115Z,4.13
2023-12-04T19:48:21.373Z,3.67
2023-12-04T19:50:49.442Z,4.40
2023-12-04T19:53:17.535Z,3.93
2023-12-04T19:55:45.551Z,4.70
2023-12-04T19:58:13.638Z,3.80
2023-12-04T20:00:42.330Z,4.13
2023-12-04T20:03:13.223Z,3.63
2023-12-04T20:05:42.726Z,3.07
2023-12-04T20:08:11.532Z,3.37
2023-12-04T20:10:40.048Z,3.50
2023-12-04T20:13:08.219Z,4.43
2023-12-04T20:15:36.452Z,4.10
2023-12-04T20:18:04.906Z,4.00
2023-12-04T20:20:34.470Z,3.73
2023-12-04T20:23:02.528Z,4.27
2023-12-04T20:25:29.526Z,3.47
2023-12-04T20:27:57.593Z,3.73
2023-12-04T20:30:26.296Z,4.13
2023-12-04T20:32:54.458Z,3.73
2023-12-04T20:35:23.300Z,4.33
2023-12-04T20:37:52.738Z,4.60
2023-12-04T20:40:22.153Z,3.70
2023-12-04T20:42:50.316Z,4.00
2023-12-04T20:45:18.425Z,3.93
2023-12-04T20:47:46.523Z,4.00
2023-12-04T20:50:14.707Z,3.97
2023-12-04T20:52:42.763Z,4.17
2023-12-04T20:55:12.456Z,3.83
2023-12-04T20:57:41.591Z,3.97
2023-12-04T21:00:12.408Z,4.17
2023-12-04T21:02:40.624Z,4.17
2023-12-04T21:05:09.706Z,3.77
2023-12-04T21:07:38.106Z,4.17
2023-12-04T21:10:07.150Z,3.10
2023-12-04T21:12:37.270Z,4.00
2023-12-04T21:15:05.985Z,4.23
2023-12-04T21:17:34.197Z,3.60
2023-12-04T21:20:02.323Z,3.70
2023-12-04T21:22:30.580Z,4.17
2023-12-04T21:24:58.688Z,4.00
2023-12-04T21:27:26.800Z,3.80
2023-12-04T21:29:56.241Z,4.03
2023-12-04T21:32:24.329Z,3.70
2023-12-04T21:34:52.427Z,4.03
2023-12-04T21:37:21.084Z,4.10
2023-12-04T21:39:51.776Z,4.63
2023-12-04T21:42:19.971Z,4.40
2023-12-04T21:44:47.998Z,3.80
2023-12-04T21:47:17.493Z,4.77
2023-12-04T21:49:46.737Z,4.70
2023-12-04T21:52:14.895Z,4.27
2023-12-04T21:54:42.996Z,4.70
2023-12-04T21:57:11.237Z,4.43
2023-12-04T21:59:39.339Z,4.60
2023-12-04T22:02:07.587Z,4.40
2023-12-04T22:04:37.246Z,5.13
2023-12-04T22:07:05.720Z,3.83
2023-12-04T22:09:33.986Z,5.33
2023-12-04T22:12:02.038Z,4.40
2023-12-04T22:14:30.078Z,4.03
2023-12-04T22:16:58.095Z,5.73
2023-12-04T22:19:26.272Z,5.13
2023-12-04T22:21:55.751Z,4.57
2023-12-04T22:24:23.808Z,5.13
2023-12-04T22:26:51.862Z,4.03
2023-12-04T22:29:19.903Z,4.63
2023-12-04T22:31:48.527Z,4.67
2023-12-04T22:34:16.596Z,5.30
2023-12-04T22:36:44.860Z,4.87
2023-12-04T22:39:14.576Z,4.43
2023-12-04T22:41:42.672Z,4.63
2023-12-04T22:44:10.796Z,4.57
2023-12-04T22:46:38.809Z,4.60
2023-12-04T22:49:06.982Z,4.17
2023-12-04T22:51:35.063Z,4.90
2023-12-04T22:54:05.516Z,4.83
2023-12-04T22:56:35.034Z,5.50
2023-12-04T22:59:03.358Z,4.07
2023-12-04T23:01:31.403Z,4.57
2023-12-04T23:04:00.536Z,4.53
2023-12-04T23:06:28.834Z,5.17
2023-12-04T23:08:57.660Z,4.37
2023-12-04T23:11:25.683Z,4.43
2023-12-04T23:13:55.141Z,4.57
2023-12-04T23:16:23.651Z,5.27
2023-12-04T23:18:51.768Z,4.37
2023-12-04T23:21:19.897Z,5.10
2023-12-04T23:23:47.958Z,4.27
2023-12-04T23:26:16.057Z,4.77
2023-12-04T23:28:45.371Z,4.30
2023-12-04T23:31:14.885Z,4.77
2023-12-04T23:33:42.981Z,4.73
2023-12-04T23:36:12.400Z,4.93
2023-12-04T23:38:40.495Z,4.37
2023-12-04T23:41:08.899Z,4.27
2023-12-04T23:43:37.017Z,4.43
2023-12-04T23:46:05.412Z,4.90
2023-12-04T23:48:35.115Z,3.97
2023-12-04T23:51:03.356Z,4.17
2023-12-04T23:53:31.381Z,4.90
2023-12-04T23:55:59.582Z,4.60
2023-12-04T23:58:27.615Z,4.20
